sensor_id;sensor_type;location;lat;lon;timestamp;P1;durP1;ratioP1;P2;durP2;ratioP2
78672;SDS011;67988;60.086;30.354;2023-08-07T00:01:59;10.18;;;8.52;;
78672;SDS011;67988;60.086;30.354;2023-08-07T00:04:26;13.23;;;9.23;;
78672;SDS011;67988;60.086;30.354;2023-08-07T00:06:54;10.70;;;8.77;;
78672;SDS011;67988;60.086;30.354;2023-08-07T00:09:21;11.18;;;7.85;;
78672;SDS011;67988;60.086;30.354;2023-08-07T00:11:50;11.63;;;9.32;;
78672;SDS011;67988;60.086;30.354;2023-08-07T00:14:17;10.45;;;8.50;;
78672;SDS011;67988;60.086;30.354;2023-08-07T00:16:44;11.95;;;9.45;;
78672;SDS011;67988;60.086;30.354;2023-08-07T00:19:11;13.60;;;10.40;;
78672;SDS011;67988;60.086;30.354;2023-08-07T00:21:38;14.82;;;9.65;;
78672;SDS011;67988;60.086;30.354;2023-08-07T00:24:05;13.25;;;9.57;;
78672;SDS011;67988;60.086;30.354;2023-08-07T00:26:32;13.90;;;10.27;;
78672;SDS011;67988;60.086;30.354;2023-08-07T00:29:01;15.43;;;10.48;;
78672;SDS011;67988;60.086;30.354;2023-08-07T00:31:28;13.00;;;10.45;;
78672;SDS011;67988;60.086;30.354;2023-08-07T00:33:56;15.07;;;10.05;;
78672;SDS011;67988;60.086;30.354;2023-08-07T00:36:24;12.55;;;9.43;;
78672;SDS011;67988;60.086;30.354;2023-08-07T00:38:53;12.27;;;10.50;;
78672;SDS011;67988;60.086;30.354;2023-08-07T00:41:21;16.27;;;9.32;;
78672;SDS011;67988;60.086;30.354;2023-08-07T00:43:48;18.05;;;11.32;;
78672;SDS011;67988;60.086;30.354;2023-08-07T00:46:16;12.65;;;8.95;;
78672;SDS011;67988;60.086;30.354;2023-08-07T00:48:44;16.58;;;10.15;;
78672;SDS011;67988;60.086;30.354;2023-08-07T00:51:12;11.18;;;9.57;;
78672;SDS011;67988;60.086;30.354;2023-08-07T00:53:40;21.67;;;11.63;;
78672;SDS011;67988;60.086;30.354;2023-08-07T00:56:08;14.50;;;10.93;;
78672;SDS011;67988;60.086;30.354;2023-08-07T00:58:35;13.65;;;10.80;;
78672;SDS011;67988;60.086;30.354;2023-08-07T01:03:31;16.30;;;9.82;;
78672;SDS011;67988;60.086;30.354;2023-08-07T01:05:59;15.77;;;10.23;;
78672;SDS011;67988;60.086;30.354;2023-08-07T01:08:27;14.65;;;10.77;;
78672;SDS011;67988;60.086;30.354;2023-08-07T01:11:01;16.17;;;11.95;;
78672;SDS011;67988;60.086;30.354;2023-08-07T01:13:40;15.68;;;11.63;;
78672;SDS011;67988;60.086;30.354;2023-08-07T01:16:17;14.25;;;10.40;;
78672;SDS011;67988;60.086;30.354;2023-08-07T01:18:49;13.65;;;10.27;;
78672;SDS011;67988;60.086;30.354;2023-08-07T01:21:17;18.42;;;10.65;;
78672;SDS011;67988;60.086;30.354;2023-08-07T01:23:47;16.27;;;10.82;;
78672;SDS011;67988;60.086;30.354;2023-08-07T01:26:15;18.73;;;11.63;;
78672;SDS011;67988;60.086;30.354;2023-08-07T01:28:46;15.15;;;12.05;;
78672;SDS011;67988;60.086;30.354;2023-08-07T01:31:18;14.43;;;10.60;;
78672;SDS011;67988;60.086;30.354;2023-08-07T01:33:51;13.60;;;11.10;;
78672;SDS011;67988;60.086;30.354;2023-08-07T01:36:24;17.67;;;11.27;;
78672;SDS011;67988;60.086;30.354;2023-08-07T01:38:55;16.60;;;11.00;;
78672;SDS011;67988;60.086;30.354;2023-08-07T01:41:24;17.15;;;10.88;;
78672;SDS011;67988;60.086;30.354;2023-08-07T01:43:52;13.10;;;11.55;;
78672;SDS011;67988;60.086;30.354;2023-08-07T01:46:20;14.75;;;10.88;;
78672;SDS011;67988;60.086;30.354;2023-08-07T01:48:47;17.10;;;11.25;;
78672;SDS011;67988;60.086;30.354;2023-08-07T01:53:41;15.15;;;10.55;;
78672;SDS011;67988;60.086;30.354;2023-08-07T01:56:10;15.30;;;10.23;;
78672;SDS011;67988;60.086;30.354;2023-08-07T01:58:37;16.10;;;11.18;;
78672;SDS011;67988;60.086;30.354;2023-08-07T02:01:04;18.77;;;11.85;;
78672;SDS011;67988;60.086;30.354;2023-08-07T02:03:31;17.92;;;10.85;;
78672;SDS011;67988;60.086;30.354;2023-08-07T02:08:26;16.13;;;10.95;;
78672;SDS011;67988;60.086;30.354;2023-08-07T02:10:53;14.98;;;10.63;;
78672;SDS011;67988;60.086;30.354;2023-08-07T02:13:21;14.55;;;11.40;;
78672;SDS011;67988;60.086;30.354;2023-08-07T02:15:48;15.85;;;11.90;;
78672;SDS011;67988;60.086;30.354;2023-08-07T02:18:16;16.17;;;11.48;;
78672;SDS011;67988;60.086;30.354;2023-08-07T02:20:43;19.08;;;11.38;;
78672;SDS011;67988;60.086;30.354;2023-08-07T02:23:12;16.77;;;11.20;;
78672;SDS011;67988;60.086;30.354;2023-08-07T02:25:39;18.50;;;12.40;;
78672;SDS011;67988;60.086;30.354;2023-08-07T02:28:06;18.90;;;11.40;;
78672;SDS011;67988;60.086;30.354;2023-08-07T02:30:35;15.27;;;11.77;;
78672;SDS011;67988;60.086;30.354;2023-08-07T02:33:02;14.60;;;10.77;;
78672;SDS011;67988;60.086;30.354;2023-08-07T02:35:29;16.08;;;12.00;;
78672;SDS011;67988;60.086;30.354;2023-08-07T02:37:56;20.30;;;11.30;;
78672;SDS011;67988;60.086;30.354;2023-08-07T02:40:24;17.20;;;12.48;;
78672;SDS011;67988;60.086;30.354;2023-08-07T02:42:51;13.68;;;11.60;;
78672;SDS011;67988;60.086;30.354;2023-08-07T02:45:18;17.65;;;10.50;;
78672;SDS011;67988;60.086;30.354;2023-08-07T02:47:47;17.75;;;11.18;;
78672;SDS011;67988;60.086;30.354;2023-08-07T02:50:14;17.98;;;10.75;;
78672;SDS011;67988;60.086;30.354;2023-08-07T02:52:41;16.10;;;11.35;;
78672;SDS011;67988;60.086;30.354;2023-08-07T02:55:08;16.02;;;12.10;;
78672;SDS011;67988;60.086;30.354;2023-08-07T02:57:35;19.80;;;12.90;;
78672;SDS011;67988;60.086;30.354;2023-08-07T03:00:03;14.77;;;11.85;;
78672;SDS011;67988;60.086;30.354;2023-08-07T03:02:31;16.77;;;11.48;;
78672;SDS011;67988;60.086;30.354;2023-08-07T03:04:59;16.25;;;10.30;;
78672;SDS011;67988;60.086;30.354;2023-08-07T03:07:27;14.13;;;10.65;;
78672;SDS011;67988;60.086;30.354;2023-08-07T03:09:54;18.77;;;12.23;;
78672;SDS011;67988;60.086;30.354;2023-08-07T03:12:21;15.50;;;10.80;;
78672;SDS011;67988;60.086;30.354;2023-08-07T03:14:48;13.73;;;10.85;;
78672;SDS011;67988;60.086;30.354;2023-08-07T03:17:15;14.07;;;11.45;;
78672;SDS011;67988;60.086;30.354;2023-08-07T03:19:43;14.77;;;11.27;;
78672;SDS011;67988;60.086;30.354;2023-08-07T03:22:13;20.15;;;10.93;;
78672;SDS011;67988;60.086;30.354;2023-08-07T03:24:40;16.85;;;12.00;;
78672;SDS011;67988;60.086;30.354;2023-08-07T03:27:07;14.63;;;10.95;;
78672;SDS011;67988;60.086;30.354;2023-08-07T03:29:34;13.88;;;9.75;;
78672;SDS011;67988;60.086;30.354;2023-08-07T03:32:01;13.50;;;9.68;;
78672;SDS011;67988;60.086;30.354;2023-08-07T03:34:30;16.50;;;9.88;;
78672;SDS011;67988;60.086;30.354;2023-08-07T03:36:58;14.43;;;10.00;;
78672;SDS011;67988;60.086;30.354;2023-08-07T03:39:27;14.95;;;10.55;;
78672;SDS011;67988;60.086;30.354;2023-08-07T03:41:54;16.98;;;10.20;;
78672;SDS011;67988;60.086;30.354;2023-08-07T03:44:22;11.70;;;10.02;;
78672;SDS011;67988;60.086;30.354;2023-08-07T03:46:49;11.27;;;9.80;;
78672;SDS011;67988;60.086;30.354;2023-08-07T03:49:21;12.52;;;9.15;;
78672;SDS011;67988;60.086;30.354;2023-08-07T03:51:49;12.55;;;9.32;;
78672;SDS011;67988;60.086;30.354;2023-08-07T03:54:16;12.02;;;9.32;;
78672;SDS011;67988;60.086;30.354;2023-08-07T03:56:45;13.55;;;10.52;;
78672;SDS011;67988;60.086;30.354;2023-08-07T03:59:13;12.98;;;10.10;;
78672;SDS011;67988;60.086;30.354;2023-08-07T04:01:40;14.02;;;10.23;;
78672;SDS011;67988;60.086;30.354;2023-08-07T04:04:07;16.85;;;11.15;;
78672;SDS011;67988;60.086;30.354;2023-08-07T04:06:34;18.80;;;10.02;;
78672;SDS011;67988;60.086;30.354;2023-08-07T04:09:02;16.35;;;9.57;;
78672;SDS011;67988;60.086;30.354;2023-08-07T04:11:29;13.95;;;9.85;;
78672;SDS011;67988;60.086;30.354;2023-08-07T04:14:00;15.18;;;10.15;;
78672;SDS011;67988;60.086;30.354;2023-08-07T04:16:27;12.05;;;9.13;;
78672;SDS011;67988;60.086;30.354;2023-08-07T04:18:54;14.30;;;9.38;;
78672;SDS011;67988;60.086;30.354;2023-08-07T04:21:21;14.25;;;10.23;;
78672;SDS011;67988;60.086;30.354;2023-08-07T04:23:48;12.30;;;9.38;;
78672;SDS011;67988;60.086;30.354;2023-08-07T04:26:15;11.95;;;8.90;;
78672;SDS011;67988;60.086;30.354;2023-08-07T04:28:42;13.82;;;9.10;;
78672;SDS011;67988;60.086;30.354;2023-08-07T04:31:11;14.00;;;9.50;;
78672;SDS011;67988;60.086;30.354;2023-08-07T04:33:39;15.27;;;9.32;;
78672;SDS011;67988;60.086;30.354;2023-08-07T04:36:06;16.05;;;9.13;;
78672;SDS011;67988;60.086;30.354;2023-08-07T04:38:33;12.27;;;9.35;;
78672;SDS011;67988;60.086;30.354;2023-08-07T04:41:00;12.95;;;9.30;;
78672;SDS011;67988;60.086;30.354;2023-08-07T04:43:28;11.45;;;8.18;;
78672;SDS011;67988;60.086;30.354;2023-08-07T04:45:55;12.85;;;9.63;;
78672;SDS011;67988;60.086;30.354;2023-08-07T04:48:24;11.73;;;9.75;;
78672;SDS011;67988;60.086;30.354;2023-08-07T04:50:51;12.90;;;9.52;;
78672;SDS011;67988;60.086;30.354;2023-08-07T04:53:18;17.50;;;9.65;;
78672;SDS011;67988;60.086;30.354;2023-08-07T04:55:46;14.73;;;9.30;;
78672;SDS011;67988;60.086;30.354;2023-08-07T05:00:40;15.90;;;8.10;;
78672;SDS011;67988;60.086;30.354;2023-08-07T05:03:07;11.43;;;8.52;;
78672;SDS011;67988;60.086;30.354;2023-08-07T05:05:35;10.18;;;8.68;;
78672;SDS011;67988;60.086;30.354;2023-08-07T05:08:02;23.85;;;9.00;;
78672;SDS011;67988;60.086;30.354;2023-08-07T05:10:30;10.07;;;8.70;;
78672;SDS011;67988;60.086;30.354;2023-08-07T05:12:57;12.40;;;8.50;;
78672;SDS011;67988;60.086;30.354;2023-08-07T05:15:24;10.68;;;9.25;;
78672;SDS011;67988;60.086;30.354;2023-08-07T05:17:53;13.68;;;8.00;;
78672;SDS011;67988;60.086;30.354;2023-08-07T05:20:20;18.17;;;8.63;;
78672;SDS011;67988;60.086;30.354;2023-08-07T05:22:49;10.75;;;8.20;;
78672;SDS011;67988;60.086;30.354;2023-08-07T05:25:16;11.18;;;8.35;;
78672;SDS011;67988;60.086;30.354;2023-08-07T05:27:44;11.88;;;8.38;;
78672;SDS011;67988;60.086;30.354;2023-08-07T05:30:12;16.55;;;8.32;;
78672;SDS011;67988;60.086;30.354;2023-08-07T05:32:40;17.05;;;9.73;;
78672;SDS011;67988;60.086;30.354;2023-08-07T05:35:07;11.63;;;8.68;;
78672;SDS011;67988;60.086;30.354;2023-08-07T05:37:35;13.70;;;8.10;;
78672;SDS011;67988;60.086;30.354;2023-08-07T05:40:05;10.98;;;7.97;;
78672;SDS011;67988;60.086;30.354;2023-08-07T05:42:32;10.70;;;8.48;;
78672;SDS011;67988;60.086;30.354;2023-08-07T05:45:00;13.50;;;9.05;;
78672;SDS011;67988;60.086;30.354;2023-08-07T05:47:27;14.23;;;7.53;;
78672;SDS011;67988;60.086;30.354;2023-08-07T05:49:54;10.93;;;8.00;;
78672;SDS011;67988;60.086;30.354;2023-08-07T05:52:22;11.35;;;7.55;;
78672;SDS011;67988;60.086;30.354;2023-08-07T05:54:49;16.85;;;8.10;;
78672;SDS011;67988;60.086;30.354;2023-08-07T05:57:18;12.93;;;7.75;;
78672;SDS011;67988;60.086;30.354;2023-08-07T05:59:45;12.73;;;7.75;;
78672;SDS011;67988;60.086;30.354;2023-08-07T06:02:12;16.88;;;7.55;;
78672;SDS011;67988;60.086;30.354;2023-08-07T06:04:39;13.35;;;7.85;;
78672;SDS011;67988;60.086;30.354;2023-08-07T06:07:07;13.10;;;7.45;;
78672;SDS011;67988;60.086;30.354;2023-08-07T06:09:34;12.93;;;8.02;;
78672;SDS011;67988;60.086;30.354;2023-08-07T06:12:02;9.45;;;7.57;;
78672;SDS011;67988;60.086;30.354;2023-08-07T06:14:31;10.30;;;7.93;;
78672;SDS011;67988;60.086;30.354;2023-08-07T06:16:58;14.07;;;7.35;;
78672;SDS011;67988;60.086;30.354;2023-08-07T06:19:27;10.43;;;7.97;;
78672;SDS011;67988;60.086;30.354;2023-08-07T06:21:54;11.63;;;8.23;;
78672;SDS011;67988;60.086;30.354;2023-08-07T06:26:49;14.15;;;6.88;;
78672;SDS011;67988;60.086;30.354;2023-08-07T06:29:16;11.05;;;7.47;;
78672;SDS011;67988;60.086;30.354;2023-08-07T06:31:44;10.82;;;8.25;;
78672;SDS011;67988;60.086;30.354;2023-08-07T06:34:12;17.85;;;7.75;;
78672;SDS011;67988;60.086;30.354;2023-08-07T06:36:39;12.18;;;7.20;;
78672;SDS011;67988;60.086;30.354;2023-08-07T06:39:06;11.57;;;7.50;;
78672;SDS011;67988;60.086;30.354;2023-08-07T06:41:33;12.48;;;8.30;;
78672;SDS011;67988;60.086;30.354;2023-08-07T06:44:01;18.30;;;8.10;;
78672;SDS011;67988;60.086;30.354;2023-08-07T06:46:29;12.95;;;7.63;;
78672;SDS011;67988;60.086;30.354;2023-08-07T06:48:58;9.77;;;7.63;;
78672;SDS011;67988;60.086;30.354;2023-08-07T06:51:25;10.77;;;7.43;;
78672;SDS011;67988;60.086;30.354;2023-08-07T06:53:52;11.30;;;7.13;;
78672;SDS011;67988;60.086;30.354;2023-08-07T06:56:19;10.10;;;8.02;;
78672;SDS011;67988;60.086;30.354;2023-08-07T06:58:46;10.60;;;7.55;;
78672;SDS011;67988;60.086;30.354;2023-08-07T07:01:13;8.63;;;7.25;;
78672;SDS011;67988;60.086;30.354;2023-08-07T07:03:40;11.80;;;7.25;;
78672;SDS011;67988;60.086;30.354;2023-08-07T07:06:09;14.27;;;8.63;;
78672;SDS011;67988;60.086;30.354;2023-08-07T07:08:36;10.73;;;7.10;;
78672;SDS011;67988;60.086;30.354;2023-08-07T07:11:03;14.77;;;7.30;;
78672;SDS011;67988;60.086;30.354;2023-08-07T07:13:30;12.70;;;7.30;;
78672;SDS011;67988;60.086;30.354;2023-08-07T07:15:57;10.40;;;7.10;;
78672;SDS011;67988;60.086;30.354;2023-08-07T07:18:25;13.25;;;7.30;;
78672;SDS011;67988;60.086;30.354;2023-08-07T07:20:58;11.65;;;7.57;;
78672;SDS011;67988;60.086;30.354;2023-08-07T07:23:27;12.02;;;7.40;;
78672;SDS011;67988;60.086;30.354;2023-08-07T07:25:54;16.13;;;7.32;;
78672;SDS011;67988;60.086;30.354;2023-08-07T21:10:52;5.28;;;3.15;;
78672;SDS011;67988;60.086;30.354;2023-08-07T21:13:20;8.70;;;4.25;;
78672;SDS011;67988;60.086;30.354;2023-08-07T21:15:47;8.82;;;3.85;;
78672;SDS011;67988;60.086;30.354;2023-08-07T21:18:14;9.32;;;3.97;;
78672;SDS011;67988;60.086;30.354;2023-08-07T21:20:41;10.82;;;3.75;;
78672;SDS011;67988;60.086;30.354;2023-08-07T21:23:08;4.25;;;3.42;;
78672;SDS011;67988;60.086;30.354;2023-08-07T21:25:37;10.95;;;4.40;;
78672;SDS011;67988;60.086;30.354;2023-08-07T21:28:06;9.68;;;3.63;;
78672;SDS011;67988;60.086;30.354;2023-08-07T21:30:34;8.23;;;3.58;;
78672;SDS011;67988;60.086;30.354;2023-08-07T21:33:01;7.10;;;4.53;;
78672;SDS011;67988;60.086;30.354;2023-08-07T21:35:29;6.38;;;3.97;;
78672;SDS011;67988;60.086;30.354;2023-08-07T21:37:56;3.65;;;3.35;;
78672;SDS011;67988;60.086;30.354;2023-08-07T21:40:23;8.68;;;3.42;;
78672;SDS011;67988;60.086;30.354;2023-08-07T21:47:10;4.40;;;2.97;;
78672;SDS011;67988;60.086;30.354;2023-08-07T21:49:37;8.73;;;3.60;;
78672;SDS011;67988;60.086;30.354;2023-08-07T21:52:05;7.63;;;3.70;;
78672;SDS011;67988;60.086;30.354;2023-08-07T21:54:32;5.78;;;3.58;;
78672;SDS011;67988;60.086;30.354;2023-08-07T21:57:00;4.82;;;3.28;;
78672;SDS011;67988;60.086;30.354;2023-08-07T21:59:27;10.38;;;3.42;;
78672;SDS011;67988;60.086;30.354;2023-08-07T22:01:54;6.13;;;4.10;;
78672;SDS011;67988;60.086;30.354;2023-08-07T22:04:23;8.90;;;3.65;;
78672;SDS011;67988;60.086;30.354;2023-08-07T22:06:50;5.05;;;3.25;;
78672;SDS011;67988;60.086;30.354;2023-08-07T22:09:17;3.85;;;3.55;;
78672;SDS011;67988;60.086;30.354;2023-08-07T22:11:44;6.55;;;2.90;;
78672;SDS011;67988;60.086;30.354;2023-08-07T22:14:11;6.47;;;3.35;;
78672;SDS011;67988;60.086;30.354;2023-08-07T22:16:39;4.38;;;2.78;;
78672;SDS011;67988;60.086;30.354;2023-08-07T22:19:06;5.80;;;4.32;;
78672;SDS011;67988;60.086;30.354;2023-08-07T22:21:35;4.07;;;2.75;;
78672;SDS011;67988;60.086;30.354;2023-08-07T22:24:05;7.57;;;3.47;;
78672;SDS011;67988;60.086;30.354;2023-08-07T22:26:32;6.38;;;4.35;;
78672;SDS011;67988;60.086;30.354;2023-08-07T22:28:59;4.38;;;2.58;;
78672;SDS011;67988;60.086;30.354;2023-08-07T22:31:26;5.60;;;2.83;;
78672;SDS011;67988;60.086;30.354;2023-08-07T22:33:53;7.00;;;3.55;;
78672;SDS011;67988;60.086;30.354;2023-08-07T22:36:21;6.07;;;3.40;;
78672;SDS011;67988;60.086;30.354;2023-08-07T22:38:49;5.88;;;3.15;;
78672;SDS011;67988;60.086;30.354;2023-08-07T22:41:17;7.07;;;4.03;;
78672;SDS011;67988;60.086;30.354;2023-08-07T22:43:45;4.50;;;3.50;;
78672;SDS011;67988;60.086;30.354;2023-08-07T22:46:12;5.82;;;3.58;;
78672;SDS011;67988;60.086;30.354;2023-08-07T22:48:39;8.20;;;3.40;;
78672;SDS011;67988;60.086;30.354;2023-08-07T22:51:06;3.78;;;3.13;;
78672;SDS011;67988;60.086;30.354;2023-08-07T22:53:34;4.70;;;2.90;;
78672;SDS011;67988;60.086;30.354;2023-08-07T22:56:02;4.35;;;3.50;;
78672;SDS011;67988;60.086;30.354;2023-08-07T22:58:30;6.88;;;3.90;;
78672;SDS011;67988;60.086;30.354;2023-08-07T23:00:57;4.03;;;3.55;;
78672;SDS011;67988;60.086;30.354;2023-08-07T23:03:24;6.15;;;3.42;;
78672;SDS011;67988;60.086;30.354;2023-08-07T23:18:02;7.63;;;3.63;;
78672;SDS011;67988;60.086;30.354;2023-08-07T23:20:30;7.00;;;3.47;;
78672;SDS011;67988;60.086;30.354;2023-08-07T23:22:58;7.22;;;3.50;;
78672;SDS011;67988;60.086;30.354;2023-08-07T23:25:25;5.85;;;4.20;;
78672;SDS011;67988;60.086;30.354;2023-08-07T23:27:52;5.80;;;4.15;;
78672;SDS011;67988;60.086;30.354;2023-08-07T23:30:19;5.07;;;3.35;;
78672;SDS011;67988;60.086;30.354;2023-08-07T23:32:47;8.57;;;3.58;;
78672;SDS011;67988;60.086;30.354;2023-08-07T23:35:15;4.25;;;3.47;;
78672;SDS011;67988;60.086;30.354;2023-08-07T23:37:42;4.20;;;3.65;;
78672;SDS011;67988;60.086;30.354;2023-08-07T23:40:10;7.47;;;3.78;;
78672;SDS011;67988;60.086;30.354;2023-08-07T23:42:37;4.57;;;4.07;;
78672;SDS011;67988;60.086;30.354;2023-08-07T23:45:05;5.38;;;3.58;;
78672;SDS011;67988;60.086;30.354;2023-08-07T23:47:33;7.25;;;3.75;;
78672;SDS011;67988;60.086;30.354;2023-08-07T23:50:00;5.25;;;4.55;;
78672;SDS011;67988;60.086;30.354;2023-08-07T23:52:29;7.32;;;4.00;;
78672;SDS011;67988;60.086;30.354;2023-08-07T23:54:57;4.45;;;3.78;;
78672;SDS011;67988;60.086;30.354;2023-08-07T23:57:24;7.78;;;3.53;;
78672;SDS011;67988;60.086;30.354;2023-08-07T23:59:51;6.00;;;4.85;;
